sensor_id;sensor_type;location;lat;lon;timestamp;pressure;altitude;pressure_sealevel;temperature;humidity
35551;BME280;21655;46.056;13.616;2023-04-20T00:02:18;100087.03;;;13.30;100.00
35551;BME280;21655;46.056;13.616;2023-04-20T00:04:43;100080.41;;;13.31;100.00
35551;BME280;21655;46.056;13.616;2023-04-20T00:07:09;100078.69;;;13.30;100.00
35551;BME280;21655;46.056;13.616;2023-04-20T00:09:34;100079.75;;;13.29;100.00
35551;BME280;21655;46.056;13.616;2023-04-20T00:12:00;100081.03;;;13.33;100.00
35551;BME280;21655;46.056;13.616;2023-04-20T00:14:26;100072.31;;;13.36;100.00
35551;BME280;21655;46.056;13.616;2023-04-20T00:16:51;100077.88;;;13.36;100.00
35551;BME280;21655;46.056;13.616;2023-04-20T00:19:16;100067.56;;;13.37;100.00
35551;BME280;21655;46.056;13.616;2023-04-20T00:21:42;100072.53;;;13.41;100.00
35551;BME280;21655;46.056;13.616;2023-04-20T00:24:08;100063.06;;;13.36;100.00
35551;BME280;21655;46.056;13.616;2023-04-20T00:26:33;100063.69;;;13.31;100.00
35551;BME280;21655;46.056;13.616;2023-04-20T00:28:58;100063.03;;;13.29;100.00
35551;BME280;21655;46.056;13.616;2023-04-20T00:31:24;100049.34;;;13.28;100.00
35551;BME280;21655;46.056;13.616;2023-04-20T00:33:49;100055.75;;;13.28;100.00
35551;BME280;21655;46.056;13.616;2023-04-20T00:36:15;100060.84;;;13.25;100.00
35551;BME280;21655;46.056;13.616;2023-04-20T00:38:40;100062.56;;;13.19;100.00
35551;BME280;21655;46.056;13.616;2023-04-20T00:41:06;100055.69;;;13.22;100.00
35551;BME280;21655;46.056;13.616;2023-04-20T00:43:31;100056.31;;;13.17;100.00
35551;BME280;21655;46.056;13.616;2023-04-20T00:45:57;100058.06;;;13.18;100.00
35551;BME280;21655;46.056;13.616;2023-04-20T00:48:22;100056.56;;;13.22;100.00
35551;BME280;21655;46.056;13.616;2023-04-20T00:50:49;100058.28;;;13.23;100.00
35551;BME280;21655;46.056;13.616;2023-04-20T00:53:15;100056.13;;;13.19;100.00
35551;BME280;21655;46.056;13.616;2023-04-20T00:55:42;100053.78;;;13.22;100.00
35551;BME280;21655;46.056;13.616;2023-04-20T00:58:08;100053.97;;;13.21;100.00
35551;BME280;21655;46.056;13.616;2023-04-20T01:00:33;100042.19;;;13.19;100.00
35551;BME280;21655;46.056;13.616;2023-04-20T01:02:59;100039.00;;;13.22;100.00
35551;BME280;21655;46.056;13.616;2023-04-20T01:05:24;100041.59;;;13.23;100.00
35551;BME280;21655;46.056;13.616;2023-04-20T01:07:51;100039.47;;;13.25;100.00
35551;BME280;21655;46.056;13.616;2023-04-20T01:10:16;100048.91;;;13.31;100.00
35551;BME280;21655;46.056;13.616;2023-04-20T01:12:42;100042.69;;;13.29;100.00
35551;BME280;21655;46.056;13.616;2023-04-20T01:15:08;100050.41;;;13.27;100.00
35551;BME280;21655;46.056;13.616;2023-04-20T01:17:34;100051.81;;;13.16;100.00
35551;BME280;21655;46.056;13.616;2023-04-20T01:20:03;100041.34;;;13.18;100.00
35551;BME280;21655;46.056;13.616;2023-04-20T01:22:28;100046.50;;;13.21;100.00
35551;BME280;21655;46.056;13.616;2023-04-20T01:24:54;100044.16;;;13.25;100.00
35551;BME280;21655;46.056;13.616;2023-04-20T01:27:19;100042.84;;;13.21;100.00
35551;BME280;21655;46.056;13.616;2023-04-20T01:29:45;100046.28;;;13.23;100.00
35551;BME280;21655;46.056;13.616;2023-04-20T01:32:11;100051.19;;;13.21;100.00
35551;BME280;21655;46.056;13.616;2023-04-20T01:34:37;100039.41;;;13.19;100.00
35551;BME280;21655;46.056;13.616;2023-04-20T01:37:03;100041.78;;;13.22;100.00
35551;BME280;21655;46.056;13.616;2023-04-20T01:39:37;100040.47;;;13.18;100.00
35551;BME280;21655;46.056;13.616;2023-04-20T01:42:03;100038.56;;;13.18;100.00
35551;BME280;21655;46.056;13.616;2023-04-20T01:44:29;100039.59;;;13.17;100.00
35551;BME280;21655;46.056;13.616;2023-04-20T01:46:54;100041.59;;;13.23;100.00
35551;BME280;21655;46.056;13.616;2023-04-20T01:49:20;100032.38;;;13.23;100.00
35551;BME280;21655;46.056;13.616;2023-04-20T01:51:45;100034.94;;;13.24;100.00
35551;BME280;21655;46.056;13.616;2023-04-20T01:54:10;100032.63;;;13.28;100.00
35551;BME280;21655;46.056;13.616;2023-04-20T01:56:36;100035.84;;;13.31;100.00
35551;BME280;21655;46.056;13.616;2023-04-20T01:59:01;100026.63;;;13.31;100.00
35551;BME280;21655;46.056;13.616;2023-04-20T02:01:27;100027.44;;;13.25;100.00
35551;BME280;21655;46.056;13.616;2023-04-20T02:03:52;100027.44;;;13.18;100.00
35551;BME280;21655;46.056;13.616;2023-04-20T02:06:17;100027.81;;;13.15;100.00
35551;BME280;21655;46.056;13.616;2023-04-20T02:08:43;100020.34;;;13.16;100.00
35551;BME280;21655;46.056;13.616;2023-04-20T02:11:08;100026.75;;;13.16;100.00
35551;BME280;21655;46.056;13.616;2023-04-20T02:13:34;100020.81;;;13.19;100.00
35551;BME280;21655;46.056;13.616;2023-04-20T02:15:59;100027.44;;;13.18;100.00
35551;BME280;21655;46.056;13.616;2023-04-20T02:18:25;100023.22;;;12.95;100.00
35551;BME280;21655;46.056;13.616;2023-04-20T02:20:50;100027.72;;;12.96;100.00
35551;BME280;21655;46.056;13.616;2023-04-20T02:23:16;100025.78;;;12.97;100.00
35551;BME280;21655;46.056;13.616;2023-04-20T02:25:41;100037.53;;;12.71;100.00
35551;BME280;21655;46.056;13.616;2023-04-20T02:28:06;100033.97;;;12.56;100.00
35551;BME280;21655;46.056;13.616;2023-04-20T02:30:32;100029.72;;;12.54;100.00
35551;BME280;21655;46.056;13.616;2023-04-20T02:32:58;100032.03;;;12.50;100.00
35551;BME280;21655;46.056;13.616;2023-04-20T02:35:23;100035.16;;;12.41;100.00
35551;BME280;21655;46.056;13.616;2023-04-20T02:37:48;100035.53;;;12.38;100.00
35551;BME280;21655;46.056;13.616;2023-04-20T02:40:14;100027.59;;;12.35;100.00
35551;BME280;21655;46.056;13.616;2023-04-20T02:42:40;100036.06;;;12.27;100.00
35551;BME280;21655;46.056;13.616;2023-04-20T02:45:06;100036.06;;;12.27;100.00
35551;BME280;21655;46.056;13.616;2023-04-20T02:47:31;100033.63;;;12.17;100.00
35551;BME280;21655;46.056;13.616;2023-04-20T02:49:57;100030.38;;;12.14;100.00
35551;BME280;21655;46.056;13.616;2023-04-20T02:52:22;100032.63;;;12.25;100.00
35551;BME280;21655;46.056;13.616;2023-04-20T02:54:48;100020.78;;;12.37;100.00
35551;BME280;21655;46.056;13.616;2023-04-20T02:57:13;100014.97;;;12.60;100.00
35551;BME280;21655;46.056;13.616;2023-04-20T02:59:39;100009.47;;;12.66;100.00
35551;BME280;21655;46.056;13.616;2023-04-20T03:02:04;100012.13;;;12.81;100.00
35551;BME280;21655;46.056;13.616;2023-04-20T03:04:30;100010.00;;;12.83;100.00
35551;BME280;21655;46.056;13.616;2023-04-20T03:06:56;100014.50;;;12.84;100.00
35551;BME280;21655;46.056;13.616;2023-04-20T03:09:23;100022.19;;;12.82;100.00
35551;BME280;21655;46.056;13.616;2023-04-20T03:11:49;100023.91;;;12.83;100.00
35551;BME280;21655;46.056;13.616;2023-04-20T03:14:14;100024.78;;;12.83;100.00
35551;BME280;21655;46.056;13.616;2023-04-20T03:16:40;100022.44;;;12.80;100.00
35551;BME280;21655;46.056;13.616;2023-04-20T03:19:06;100016.00;;;12.80;100.00
35551;BME280;21655;46.056;13.616;2023-04-20T03:21:31;100019.22;;;12.83;100.00
35551;BME280;21655;46.056;13.616;2023-04-20T03:23:58;100022.19;;;12.82;100.00
35551;BME280;21655;46.056;13.616;2023-04-20T03:26:23;100022.00;;;12.83;100.00
35551;BME280;21655;46.056;13.616;2023-04-20T03:28:49;100017.75;;;12.87;100.00
35551;BME280;21655;46.056;13.616;2023-04-20T03:31:15;100017.56;;;12.89;100.00
35551;BME280;21655;46.056;13.616;2023-04-20T03:33:40;100013.91;;;12.88;100.00
35551;BME280;21655;46.056;13.616;2023-04-20T03:36:06;100016.63;;;12.82;100.00
35551;BME280;21655;46.056;13.616;2023-04-20T03:38:32;100013.44;;;12.85;100.00
35551;BME280;21655;46.056;13.616;2023-04-20T03:40:57;100005.78;;;12.87;100.00
35551;BME280;21655;46.056;13.616;2023-04-20T03:43:22;100013.66;;;12.83;100.00
35551;BME280;21655;46.056;13.616;2023-04-20T03:45:48;100014.91;;;12.81;100.00
35551;BME280;21655;46.056;13.616;2023-04-20T03:48:13;100012.56;;;12.78;100.00
35551;BME280;21655;46.056;13.616;2023-04-20T03:50:39;100016.22;;;12.78;100.00
35551;BME280;21655;46.056;13.616;2023-04-20T03:53:04;100015.16;;;12.79;100.00
35551;BME280;21655;46.056;13.616;2023-04-20T03:55:30;100015.53;;;12.76;100.00
35551;BME280;21655;46.056;13.616;2023-04-20T03:57:55;100011.44;;;12.72;100.00
35551;BME280;21655;46.056;13.616;2023-04-20T04:00:21;100023.44;;;12.73;100.00
35551;BME280;21655;46.056;13.616;2023-04-20T04:02:46;100015.28;;;12.71;100.00
35551;BME280;21655;46.056;13.616;2023-04-20T04:05:11;100024.28;;;12.73;100.00
35551;BME280;21655;46.056;13.616;2023-04-20T04:07:37;100032.22;;;12.76;100.00
35551;BME280;21655;46.056;13.616;2023-04-20T04:10:02;100039.25;;;12.72;100.00
35551;BME280;21655;46.056;13.616;2023-04-20T04:12:30;100036.06;;;12.75;100.00
35551;BME280;21655;46.056;13.616;2023-04-20T04:14:56;100043.97;;;12.72;100.00
35551;BME280;21655;46.056;13.616;2023-04-20T04:17:21;100036.94;;;12.76;100.00
35551;BME280;21655;46.056;13.616;2023-04-20T04:19:46;100041.19;;;12.72;100.00
35551;BME280;21655;46.056;13.616;2023-04-20T04:22:12;100043.09;;;12.71;100.00
35551;BME280;21655;46.056;13.616;2023-04-20T04:24:37;100045.47;;;12.74;100.00
35551;BME280;21655;46.056;13.616;2023-04-20T04:27:04;100045.41;;;12.68;100.00
35551;BME280;21655;46.056;13.616;2023-04-20T04:29:29;100048.59;;;12.65;100.00
35551;BME280;21655;46.056;13.616;2023-04-20T04:31:56;100049.94;;;12.69;100.00
35551;BME280;21655;46.056;13.616;2023-04-20T04:34:22;100051.25;;;12.73;100.00
35551;BME280;21655;46.056;13.616;2023-04-20T04:36:49;100054.69;;;12.75;100.00
35551;BME280;21655;46.056;13.616;2023-04-20T04:39:15;100049.13;;;12.75;100.00
35551;BME280;21655;46.056;13.616;2023-04-20T04:41:40;100058.31;;;12.75;100.00
35551;BME280;21655;46.056;13.616;2023-04-20T04:44:06;100059.59;;;12.73;100.00
35551;BME280;21655;46.056;13.616;2023-04-20T04:46:31;100064.34;;;12.79;100.00
35551;BME280;21655;46.056;13.616;2023-04-20T04:48:57;100058.19;;;12.83;100.00
35551;BME280;21655;46.056;13.616;2023-04-20T04:51:25;100067.00;;;12.87;100.00
35551;BME280;21655;46.056;13.616;2023-04-20T04:53:51;100063.81;;;12.90;100.00
35551;BME280;21655;46.056;13.616;2023-04-20T04:56:16;100070.63;;;12.87;100.00
35551;BME280;21655;46.056;13.616;2023-04-20T04:58:44;100066.88;;;12.95;100.00
35551;BME280;21655;46.056;13.616;2023-04-20T05:01:10;100070.03;;;12.92;100.00
35551;BME280;21655;46.056;13.616;2023-04-20T05:03:36;100079.72;;;12.96;100.00
35551;BME280;21655;46.056;13.616;2023-04-20T05:06:01;100074.19;;;13.02;100.00
35551;BME280;21655;46.056;13.616;2023-04-20T05:08:27;100078.25;;;13.00;100.00
35551;BME280;21655;46.056;13.616;2023-04-20T05:10:52;100079.78;;;13.02;100.00
35551;BME280;21655;46.056;13.616;2023-04-20T05:13:18;100076.34;;;13.00;100.00
35551;BME280;21655;46.056;13.616;2023-04-20T05:15:43;100074.44;;;13.07;100.00
35551;BME280;21655;46.056;13.616;2023-04-20T05:18:08;100077.50;;;13.12;100.00
35551;BME280;21655;46.056;13.616;2023-04-20T05:20:34;100073.19;;;13.10;100.00
35551;BME280;21655;46.056;13.616;2023-04-20T05:22:59;100074.06;;;13.10;100.00
35551;BME280;21655;46.056;13.616;2023-04-20T05:25:24;100076.44;;;13.13;100.00
35551;BME280;21655;46.056;13.616;2023-04-20T05:27:50;100072.53;;;13.08;100.00
35551;BME280;21655;46.056;13.616;2023-04-20T05:30:15;100073.59;;;13.07;100.00
35551;BME280;21655;46.056;13.616;2023-04-20T05:32:41;100080.66;;;13.03;100.00
35551;BME280;21655;46.056;13.616;2023-04-20T05:35:07;100084.72;;;13.07;100.00
35551;BME280;21655;46.056;13.616;2023-04-20T05:37:32;100075.06;;;13.03;100.00
35551;BME280;21655;46.056;13.616;2023-04-20T05:39:57;100082.97;;;12.99;100.00
35551;BME280;21655;46.056;13.616;2023-04-20T05:42:23;100086.00;;;13.04;100.00
35551;BME280;21655;46.056;13.616;2023-04-20T05:44:48;100080.88;;;13.08;100.00
35551;BME280;21655;46.056;13.616;2023-04-20T05:47:14;100092.66;;;13.10;100.00
35551;BME280;21655;46.056;13.616;2023-04-20T05:49:39;100087.56;;;13.13;100.00
35551;BME280;21655;46.056;13.616;2023-04-20T05:52:05;100094.19;;;13.12;100.00
35551;BME280;21655;46.056;13.616;2023-04-20T05:54:30;100096.56;;;13.15;100.00
35551;BME280;21655;46.056;13.616;2023-04-20T05:56:56;100096.22;;;13.24;100.00
35551;BME280;21655;46.056;13.616;2023-04-20T05:59:25;100094.91;;;13.20;100.00
35551;BME280;21655;46.056;13.616;2023-04-20T06:01:51;100101.44;;;13.07;100.00
35551;BME280;21655;46.056;13.616;2023-04-20T06:04:16;100103.41;;;13.13;100.00
35551;BME280;21655;46.056;13.616;2023-04-20T06:06:42;100106.19;;;13.13;100.00
35551;BME280;21655;46.056;13.616;2023-04-20T06:09:07;100110.03;;;13.12;100.00
35551;BME280;21655;46.056;13.616;2023-04-20T06:11:33;100104.00;;;13.08;100.00
35551;BME280;21655;46.056;13.616;2023-04-20T06:13:58;100111.34;;;13.15;100.00
35551;BME280;21655;46.056;13.616;2023-04-20T06:16:24;100112.00;;;13.17;100.00
35551;BME280;21655;46.056;13.616;2023-04-20T06:18:49;100112.63;;;13.13;100.00
35551;BME280;21655;46.056;13.616;2023-04-20T06:21:15;100120.66;;;13.29;100.00
35551;BME280;21655;46.056;13.616;2023-04-20T06:23:41;100115.09;;;13.29;100.00
35551;BME280;21655;46.056;13.616;2023-04-20T06:26:08;100115.88;;;13.23;100.00
35551;BME280;21655;46.056;13.616;2023-04-20T06:28:35;100114.31;;;13.41;100.00
35551;BME280;21655;46.056;13.616;2023-04-20T06:31:01;100118.34;;;13.39;100.00
35551;BME280;21655;46.056;13.616;2023-04-20T06:33:27;100121.22;;;13.52;100.00
35551;BME280;21655;46.056;13.616;2023-04-20T06:35:52;100118.69;;;13.57;100.00
35551;BME280;21655;46.056;13.616;2023-04-20T06:38:19;100130.19;;;13.47;100.00
35551;BME280;21655;46.056;13.616;2023-04-20T06:40:45;100134.41;;;13.37;100.00
35551;BME280;21655;46.056;13.616;2023-04-20T06:43:10;100124.16;;;13.37;100.00
35551;BME280;21655;46.056;13.616;2023-04-20T06:45:36;100122.81;;;13.33;100.00
35551;BME280;21655;46.056;13.616;2023-04-20T06:48:01;100133.31;;;13.31;100.00
35551;BME280;21655;46.056;13.616;2023-04-20T06:50:27;100133.06;;;13.26;100.00
35551;BME280;21655;46.056;13.616;2023-04-20T06:52:52;100127.66;;;13.18;100.00
35551;BME280;21655;46.056;13.616;2023-04-20T06:55:18;100137.69;;;13.13;100.00
35551;BME280;21655;46.056;13.616;2023-04-20T06:57:43;100132.31;;;13.12;100.00
35551;BME280;21655;46.056;13.616;2023-04-20T07:00:10;100143.63;;;12.89;100.00
35551;BME280;21655;46.056;13.616;2023-04-20T07:02:46;100142.78;;;12.68;100.00
35551;BME280;21655;46.056;13.616;2023-04-20T07:05:13;100149.41;;;12.67;100.00
35551;BME280;21655;46.056;13.616;2023-04-20T07:07:39;100153.88;;;12.61;100.00
35551;BME280;21655;46.056;13.616;2023-04-20T07:10:09;100166.63;;;12.56;100.00
35551;BME280;21655;46.056;13.616;2023-04-20T07:12:36;100162.31;;;12.53;100.00
35551;BME280;21655;46.056;13.616;2023-04-20T07:15:02;100165.69;;;12.49;100.00
35551;BME280;21655;46.056;13.616;2023-04-20T07:17:29;100168.03;;;12.45;100.00
35551;BME280;21655;46.056;13.616;2023-04-20T07:19:55;100172.44;;;12.40;100.00
35551;BME280;21655;46.056;13.616;2023-04-20T07:22:21;100181.78;;;12.32;100.00
35551;BME280;21655;46.056;13.616;2023-04-20T07:24:46;100185.06;;;12.21;100.00
35551;BME280;21655;46.056;13.616;2023-04-20T07:27:12;100182.19;;;12.15;100.00
35551;BME280;21655;46.056;13.616;2023-04-20T07:29:37;100183.28;;;11.99;100.00
35551;BME280;21655;46.056;13.616;2023-04-20T07:32:03;100195.75;;;11.89;100.00
35551;BME280;21655;46.056;13.616;2023-04-20T07:34:28;100199.28;;;11.83;100.00
35551;BME280;21655;46.056;13.616;2023-04-20T07:36:54;100197.38;;;11.83;100.00
35551;BME280;21655;46.056;13.616;2023-04-20T07:39:19;100199.88;;;11.78;100.00
35551;BME280;21655;46.056;13.616;2023-04-20T07:41:45;100195.28;;;11.71;100.00
35551;BME280;21655;46.056;13.616;2023-04-20T07:44:12;100200.25;;;11.61;100.00
35551;BME280;21655;46.056;13.616;2023-04-20T07:46:38;100208.41;;;11.62;100.00
35551;BME280;21655;46.056;13.616;2023-04-20T07:49:03;100206.09;;;11.66;100.00
35551;BME280;21655;46.056;13.616;2023-04-20T07:51:28;100196.53;;;11.68;100.00
35551;BME280;21655;46.056;13.616;2023-04-20T07:53:54;100213.97;;;11.62;100.00
35551;BME280;21655;46.056;13.616;2023-04-20T07:56:21;100212.59;;;11.58;100.00
35551;BME280;21655;46.056;13.616;2023-04-20T07:58:46;100213.16;;;11.54;100.00
35551;BME280;21655;46.056;13.616;2023-04-20T08:01:12;100214.81;;;11.63;100.00
35551;BME280;21655;46.056;13.616;2023-04-20T08:03:37;100217.09;;;11.59;100.00
35551;BME280;21655;46.056;13.616;2023-04-20T08:06:02;100222.03;;;11.49;100.00
35551;BME280;21655;46.056;13.616;2023-04-20T08:08:28;100226.34;;;11.52;100.00
35551;BME280;21655;46.056;13.616;2023-04-20T08:10:56;100217.66;;;11.55;100.00
35551;BME280;21655;46.056;13.616;2023-04-20T08:13:22;100212.91;;;11.63;100.00
35551;BME280;21655;46.056;13.616;2023-04-20T08:15:47;100227.47;;;11.65;100.00
35551;BME280;21655;46.056;13.616;2023-04-20T08:18:12;100220.78;;;11.52;100.00
35551;BME280;21655;46.056;13.616;2023-04-20T08:20:38;100217.97;;;11.60;100.00
35551;BME280;21655;46.056;13.616;2023-04-20T08:23:03;100217.19;;;11.66;100.00
35551;BME280;21655;46.056;13.616;2023-04-20T08:25:29;100218.16;;;11.58;100.00
35551;BME280;21655;46.056;13.616;2023-04-20T08:27:56;100224.69;;;11.65;100.00
35551;BME280;21655;46.056;13.616;2023-04-20T08:30:21;100221.69;;;11.67;100.00
35551;BME280;21655;46.056;13.616;2023-04-20T08:32:47;100221.50;;;11.68;100.00
35551;BME280;21655;46.056;13.616;2023-04-20T08:35:12;100221.34;;;11.70;100.00
35551;BME280;21655;46.056;13.616;2023-04-20T08:37:38;100220.56;;;11.76;100.00
35551;BME280;21655;46.056;13.616;2023-04-20T08:40:04;100219.13;;;11.80;100.00
35551;BME280;21655;46.056;13.616;2023-04-20T08:42:30;100219.22;;;11.86;100.00
35551;BME280;21655;46.056;13.616;2023-04-20T08:44:56;100218.53;;;11.84;100.00
35551;BME280;21655;46.056;13.616;2023-04-20T08:47:22;100222.78;;;11.80;100.00
35551;BME280;21655;46.056;13.616;2023-04-20T08:49:52;100221.13;;;11.86;100.00
35551;BME280;21655;46.056;13.616;2023-04-20T08:52:17;100224.31;;;11.97;100.00
35551;BME280;21655;46.056;13.616;2023-04-20T08:54:43;100225.22;;;12.19;100.00
35551;BME280;21655;46.056;13.616;2023-04-20T08:57:08;100222.06;;;12.22;100.00
35551;BME280;21655;46.056;13.616;2023-04-20T08:59:35;100225.59;;;12.30;100.00
35551;BME280;21655;46.056;13.616;2023-04-20T09:02:11;100219.72;;;12.40;100.00
35551;BME280;21655;46.056;13.616;2023-04-20T09:04:38;100227.09;;;12.47;100.00
35551;BME280;21655;46.056;13.616;2023-04-20T09:07:04;100227.97;;;12.33;100.00
35551;BME280;21655;46.056;13.616;2023-04-20T09:09:30;100236.84;;;12.43;100.00
35551;BME280;21655;46.056;13.616;2023-04-20T09:12:03;100231.47;;;12.56;100.00
35551;BME280;21655;46.056;13.616;2023-04-20T09:14:40;100223.03;;;12.50;100.00
35551;BME280;21655;46.056;13.616;2023-04-20T09:17:06;100231.13;;;12.45;100.00
35551;BME280;21655;46.056;13.616;2023-04-20T09:19:31;100225.28;;;12.25;100.00
35551;BME280;21655;46.056;13.616;2023-04-20T09:21:58;100233.84;;;12.24;100.00
35551;BME280;21655;46.056;13.616;2023-04-20T09:24:32;100241.31;;;12.23;100.00
35551;BME280;21655;46.056;13.616;2023-04-20T09:26:58;100243.69;;;12.26;100.00
35551;BME280;21655;46.056;13.616;2023-04-20T09:29:26;100233.28;;;12.28;100.00
35551;BME280;21655;46.056;13.616;2023-04-20T09:31:52;100234.41;;;12.19;100.00
35551;BME280;21655;46.056;13.616;2023-04-20T09:34:17;100236.31;;;12.19;100.00
35551;BME280;21655;46.056;13.616;2023-04-20T09:36:48;100231.25;;;12.22;100.00
35551;BME280;21655;46.056;13.616;2023-04-20T09:39:20;100233.50;;;12.12;100.00
35551;BME280;21655;46.056;13.616;2023-04-20T09:41:47;100230.41;;;12.22;100.00
35551;BME280;21655;46.056;13.616;2023-04-20T09:44:14;100239.81;;;12.21;100.00
35551;BME280;21655;46.056;13.616;2023-04-20T09:46:41;100231.34;;;12.29;100.00
35551;BME280;21655;46.056;13.616;2023-04-20T09:49:09;100234.03;;;12.37;100.00
35551;BME280;21655;46.056;13.616;2023-04-20T09:51:37;100238.22;;;12.33;100.00
35551;BME280;21655;46.056;13.616;2023-04-20T09:54:06;100247.94;;;12.22;100.00
35551;BME280;21655;46.056;13.616;2023-04-20T09:56:33;100250.72;;;12.22;100.00
35551;BME280;21655;46.056;13.616;2023-04-20T09:58:59;100253.50;;;12.22;100.00
35551;BME280;21655;46.056;13.616;2023-04-20T10:01:28;100247.53;;;12.25;100.00
35551;BME280;21655;46.056;13.616;2023-04-20T10:03:54;100247.09;;;12.22;100.00
35551;BME280;21655;46.056;13.616;2023-04-20T10:06:28;100246.69;;;12.25;100.00
35551;BME280;21655;46.056;13.616;2023-04-20T10:08:54;100253.09;;;12.25;100.00
35551;BME280;21655;46.056;13.616;2023-04-20T10:11:24;100246.56;;;12.33;100.00
35551;BME280;21655;46.056;13.616;2023-04-20T10:13:50;100251.00;;;12.27;100.00
35551;BME280;21655;46.056;13.616;2023-04-20T10:16:17;100245.16;;;12.37;100.00
35551;BME280;21655;46.056;13.616;2023-04-20T10:18:42;100253.56;;;12.29;100.00
35551;BME280;21655;46.056;13.616;2023-04-20T10:21:09;100253.97;;;12.26;100.00
35551;BME280;21655;46.056;13.616;2023-04-20T10:23:34;100263.84;;;12.28;100.00
35551;BME280;21655;46.056;13.616;2023-04-20T10:26:00;100262.97;;;12.28;100.00
35551;BME280;21655;46.056;13.616;2023-04-20T10:28:42;100270.34;;;12.35;100.00
35551;BME280;21655;46.056;13.616;2023-04-20T10:31:10;100260.09;;;12.21;100.00
35551;BME280;21655;46.056;13.616;2023-04-20T10:33:55;100259.44;;;12.19;100.00
35551;BME280;21655;46.056;13.616;2023-04-20T10:38:49;100259.53;;;12.26;100.00
35551;BME280;21655;46.056;13.616;2023-04-20T10:41:15;100263.25;;;12.33;100.00
35551;BME280;21655;46.056;13.616;2023-04-20T10:43:41;100266.69;;;12.35;100.00
35551;BME280;21655;46.056;13.616;2023-04-20T10:46:17;100268.31;;;12.44;100.00
35551;BME280;21655;46.056;13.616;2023-04-20T10:48:56;100274.06;;;12.42;100.00
35551;BME280;21655;46.056;13.616;2023-04-20T10:51:23;100273.53;;;12.32;100.00
35551;BME280;21655;46.056;13.616;2023-04-20T10:54:17;100281.59;;;12.27;100.00
35551;BME280;21655;46.056;13.616;2023-04-20T10:59:14;100281.28;;;12.22;100.00
35551;BME280;21655;46.056;13.616;2023-04-20T11:01:40;100276.25;;;12.11;100.00
35551;BME280;21655;46.056;13.616;2023-04-20T11:04:07;100277.06;;;12.12;100.00
35551;BME280;21655;46.056;13.616;2023-04-20T11:06:34;100277.06;;;12.12;100.00
35551;BME280;21655;46.056;13.616;2023-04-20T11:09:00;100267.03;;;12.11;100.00
35551;BME280;21655;46.056;13.616;2023-04-20T11:11:26;100273.72;;;12.02;100.00
35551;BME280;21655;46.056;13.616;2023-04-20T11:14:05;100268.09;;;11.95;100.00
35551;BME280;21655;46.056;13.616;2023-04-20T11:16:31;100268.38;;;12.00;100.00
35551;BME280;21655;46.056;13.616;2023-04-20T11:18:57;100266.06;;;11.89;100.00
35551;BME280;21655;46.056;13.616;2023-04-20T11:21:37;100279.56;;;11.78;100.00
35551;BME280;21655;46.056;13.616;2023-04-20T11:24:05;100280.44;;;11.78;100.00
35551;BME280;21655;46.056;13.616;2023-04-20T11:26:41;100278.50;;;11.79;100.00
35551;BME280;21655;46.056;13.616;2023-04-20T11:29:07;100282.50;;;11.76;100.00
35551;BME280;21655;46.056;13.616;2023-04-20T11:31:33;100280.50;;;11.70;100.00
35551;BME280;21655;46.056;13.616;2023-04-20T11:33:59;100281.84;;;11.74;100.00
35551;BME280;21655;46.056;13.616;2023-04-20T11:36:25;100272.56;;;11.82;100.00
35551;BME280;21655;46.056;13.616;2023-04-20T11:38:52;100278.44;;;11.87;100.00
35551;BME280;21655;46.056;13.616;2023-04-20T11:41:18;100264.63;;;11.79;100.00
35551;BME280;21655;46.056;13.616;2023-04-20T11:43:44;100271.50;;;11.83;100.00
35551;BME280;21655;46.056;13.616;2023-04-20T11:46:17;100272.88;;;11.87;100.00
35551;BME280;21655;46.056;13.616;2023-04-20T11:48:44;100273.72;;;11.87;100.00
35551;BME280;21655;46.056;13.616;2023-04-20T11:51:09;100263.88;;;11.99;100.00
35551;BME280;21655;46.056;13.616;2023-04-20T11:53:35;100279.59;;;12.07;100.00
35551;BME280;21655;46.056;13.616;2023-04-20T11:56:02;100277.34;;;12.17;100.00
35551;BME280;21655;46.056;13.616;2023-04-20T11:58:28;100285.41;;;12.12;100.00
35551;BME280;21655;46.056;13.616;2023-04-20T12:00:53;100284.75;;;12.10;100.00
35551;BME280;21655;46.056;13.616;2023-04-20T12:03:19;100277.84;;;12.20;100.00
35551;BME280;21655;46.056;13.616;2023-04-20T12:05:44;100277.44;;;12.23;100.00
35551;BME280;21655;46.056;13.616;2023-04-20T12:08:10;100292.03;;;12.40;100.00
35551;BME280;21655;46.056;13.616;2023-04-20T12:10:35;100269.00;;;12.46;100.00
35551;BME280;21655;46.056;13.616;2023-04-20T12:13:00;100274.44;;;12.54;100.00
35551;BME280;21655;46.056;13.616;2023-04-20T12:15:26;100274.41;;;12.68;100.00
35551;BME280;21655;46.056;13.616;2023-04-20T12:17:52;100260.91;;;12.65;100.00
35551;BME280;21655;46.056;13.616;2023-04-20T12:20:18;100269.91;;;12.67;100.00
35551;BME280;21655;46.056;13.616;2023-04-20T12:22:43;100269.50;;;12.70;100.00
35551;BME280;21655;46.056;13.616;2023-04-20T12:25:09;100262.81;;;12.65;100.00
35551;BME280;21655;46.056;13.616;2023-04-20T12:27:34;100262.97;;;12.78;100.00
35551;BME280;21655;46.056;13.616;2023-04-20T12:30:00;100252.38;;;12.88;100.00
35551;BME280;21655;46.056;13.616;2023-04-20T12:32:25;100256.38;;;12.64;100.00